createdAt,value
2017-10-19T00:00:46.668Z,32.6
2017-10-19T00:01:46.696Z,32.6
2017-10-19T00:02:46.728Z,32.6
2017-10-19T00:03:46.900Z,32.6
2017-10-19T00:04:46.862Z,32.6
2017-10-19T00:05:47.328Z,32.6
2017-10-19T00:06:46.899Z,32.6
2017-10-19T00:07:47.033Z,32.6
2017-10-19T00:08:46.933Z,32.6
2017-10-19T00:09:47.079Z,32.6
2017-10-19T00:10:47.066Z,32.6
2017-10-19T00:11:47.482Z,32.6
2017-10-19T00:12:47.223Z,32.6
2017-10-19T00:13:47.249Z,32.6
2017-10-19T00:14:47.202Z,32.6
2017-10-19T00:15:47.431Z,32.6
2017-10-19T00:16:47.450Z,32.6
2017-10-19T00:17:47.674Z,32.6
2017-10-19T00:18:47.561Z,32.6
2017-10-19T00:19:47.448Z,32.6
2017-10-19T00:20:47.479Z,32.6
2017-10-19T00:21:47.713Z,32.6
2017-10-19T00:22:47.843Z,32.6
2017-10-19T00:23:48.081Z,32.6
2017-10-19T00:24:47.733Z,32.6
2017-10-19T00:25:47.956Z,32.6
2017-10-19T00:26:47.820Z,32.6
2017-10-19T00:27:47.964Z,32.6
2017-10-19T00:28:47.841Z,32.6
2017-10-19T00:29:48.236Z,32.6
2017-10-19T00:30:47.880Z,32.6
2017-10-19T00:31:47.887Z,32.6
2017-10-19T00:32:48.044Z,32.6
2017-10-19T00:33:48.120Z,32.6
2017-10-19T00:34:48.192Z,32.6
2017-10-19T00:35:48.609Z,32.6
2017-10-19T00:36:48.211Z,32.6
2017-10-19T00:37:48.208Z,32.6
2017-10-19T00:38:48.256Z,32.6
2017-10-19T00:39:48.432Z,32.6
2017-10-19T00:40:48.437Z,32.6
2017-10-19T00:41:48.725Z,32.6
2017-10-19T00:42:48.510Z,32.6
2017-10-19T00:43:48.530Z,32.7
2017-10-19T00:44:48.542Z,32.7
2017-10-19T00:45:48.718Z,32.7
2017-10-19T00:46:48.656Z,32.6
2017-10-19T00:47:49.099Z,32.6
2017-10-19T00:48:48.967Z,32.6
2017-10-19T00:49:48.896Z,32.6
2017-10-19T00:50:48.886Z,32.6
2017-10-19T00:51:48.955Z,32.6
2017-10-19T00:52:49.030Z,32.6
2017-10-19T00:53:49.485Z,32.6
2017-10-19T00:54:49.104Z,32.6
2017-10-19T00:55:49.160Z,32.7
2017-10-19T00:56:49.417Z,32.7
2017-10-19T00:57:49.450Z,32.6
2017-10-19T00:58:49.526Z,32.6
2017-10-19T00:59:49.886Z,32.7
2017-10-19T01:00:49.957Z,32.6
2017-10-19T01:01:49.686Z,32.6
2017-10-19T01:02:49.810Z,32.6
2017-10-19T01:03:49.715Z,32.6
2017-10-19T01:04:49.932Z,32.6
2017-10-19T01:05:50.122Z,32.6
2017-10-19T01:06:50.065Z,32.6
2017-10-19T01:07:50.091Z,32.6
2017-10-19T01:08:50.064Z,32.6
2017-10-19T01:09:50.122Z,32.6
2017-10-19T01:10:50.335Z,32.6
2017-10-19T01:11:50.665Z,32.6
2017-10-19T01:12:50.295Z,32.6
2017-10-19T01:13:50.300Z,32.6
2017-10-19T01:14:50.281Z,32.6
2017-10-19T01:15:50.319Z,32.7
2017-10-19T01:16:50.382Z,32.7
2017-10-19T01:17:51.004Z,32.7
2017-10-19T01:18:50.653Z,32.7
2017-10-19T01:19:50.574Z,32.7
2017-10-19T01:20:50.678Z,32.7
2017-10-19T01:21:50.878Z,32.7
2017-10-19T01:22:50.937Z,32.7
2017-10-19T01:23:51.244Z,32.7
2017-10-19T01:24:51.000Z,32.7
2017-10-19T01:25:51.001Z,32.7
2017-10-19T01:26:50.941Z,32.7
2017-10-19T01:27:51.178Z,32.7
2017-10-19T01:28:51.076Z,32.7
2017-10-19T01:29:51.390Z,32.7
2017-10-19T01:30:51.322Z,32.7
2017-10-19T01:31:51.445Z,32.7
2017-10-19T01:32:51.418Z,32.7
2017-10-19T01:33:51.405Z,32.7
2017-10-19T01:34:51.347Z,32.7
2017-10-19T01:35:51.778Z,32.6
2017-10-19T01:36:51.459Z,32.6
2017-10-19T01:37:51.531Z,32.6
2017-10-19T01:38:51.583Z,32.6
2017-10-19T01:39:51.498Z,32.6
2017-10-19T01:40:51.506Z,32.6
2017-10-19T01:41:51.937Z,32.6
2017-10-19T01:42:51.547Z,32.6
2017-10-19T01:43:51.603Z,32.6
2017-10-19T01:44:51.823Z,32.6
2017-10-19T01:45:51.708Z,32.6
2017-10-19T01:46:51.883Z,32.6
2017-10-19T01:47:52.190Z,32.6
2017-10-19T01:48:51.809Z,32.5
2017-10-19T01:49:51.879Z,32.5
2017-10-19T01:50:52.086Z,32.5
2017-10-19T01:51:52.123Z,32.6
2017-10-19T01:52:52.245Z,32.6
2017-10-19T01:53:52.577Z,32.6
2017-10-19T01:54:52.236Z,32.6
2017-10-19T01:55:52.440Z,32.6
2017-10-19T01:56:52.480Z,32.6
2017-10-19T01:57:52.567Z,32.6
2017-10-19T01:58:52.659Z,32.6
2017-10-19T01:59:52.821Z,32.6
2017-10-19T02:00:52.630Z,32.5
2017-10-19T02:01:52.709Z,32.6
2017-10-19T02:02:52.610Z,32.6
2017-10-19T02:03:52.800Z,32.6
2017-10-19T02:04:52.849Z,32.6
2017-10-19T02:05:53.199Z,32.6
2017-10-19T02:06:58.164Z,32.6
2017-10-19T02:07:52.977Z,32.6
2017-10-19T02:08:53.053Z,32.6
2017-10-19T02:09:52.987Z,32.6
2017-10-19T02:10:53.006Z,32.6
2017-10-19T02:11:55.122Z,32.6
2017-10-19T02:12:53.129Z,32.6
2017-10-19T02:13:53.162Z,32.6
2017-10-19T02:14:53.340Z,32.6
2017-10-19T02:15:53.407Z,32.6
2017-10-19T02:16:53.344Z,32.7
2017-10-19T02:17:53.631Z,32.7
2017-10-19T02:18:53.442Z,32.6
2017-10-19T02:19:53.637Z,32.6
2017-10-19T02:20:53.651Z,32.6
2017-10-19T02:21:53.576Z,32.6
2017-10-19T02:22:53.828Z,32.6
2017-10-19T02:23:54.170Z,32.6
2017-10-19T02:24:53.940Z,32.6
2017-10-19T02:25:53.859Z,32.6
2017-10-19T02:26:54.030Z,32.6
2017-10-19T02:27:54.102Z,32.7
2017-10-19T02:28:54.090Z,32.7
2017-10-19T02:29:54.494Z,32.7
2017-10-19T02:30:54.238Z,32.7
2017-10-19T02:31:54.258Z,32.7
2017-10-19T02:32:54.268Z,32.6
2017-10-19T02:33:54.348Z,32.6
2017-10-19T02:34:54.277Z,32.6
2017-10-19T02:35:54.650Z,32.6
2017-10-19T02:36:54.577Z,32.6
2017-10-19T02:37:54.534Z,32.6
2017-10-19T02:38:54.574Z,32.6
2017-10-19T02:39:54.577Z,32.7
2017-10-19T02:40:54.814Z,32.6
2017-10-19T02:41:55.008Z,32.6
2017-10-19T02:42:54.801Z,32.6
2017-10-19T02:43:54.807Z,32.6
2017-10-19T02:44:54.943Z,32.6
2017-10-19T02:45:55.069Z,32.6
2017-10-19T02:46:55.040Z,32.6
2017-10-19T02:47:55.077Z,32.6
2017-10-19T02:48:55.141Z,32.7
2017-10-19T02:49:55.340Z,32.7
2017-10-19T02:50:55.353Z,32.7
2017-10-19T02:51:55.253Z,32.7
2017-10-19T02:52:55.495Z,32.7
2017-10-19T02:53:55.324Z,32.7
2017-10-19T02:54:55.506Z,32.7
2017-10-19T02:55:55.445Z,32.6
2017-10-19T02:56:55.450Z,32.6
2017-10-19T02:57:55.667Z,32.7
2017-10-19T02:58:55.645Z,32.7
2017-10-19T02:59:55.731Z,32.7
2017-10-19T03:00:55.655Z,32.7
2017-10-19T03:01:55.839Z,32.7
2017-10-19T03:02:55.903Z,32.7
2017-10-19T03:03:55.848Z,32.7
2017-10-19T03:04:56.001Z,32.7
2017-10-19T03:05:55.910Z,32.7
2017-10-19T03:06:55.942Z,32.7
2017-10-19T03:07:56.102Z,32.7
2017-10-19T03:08:56.114Z,32.7
2017-10-19T03:09:56.012Z,32.7
2017-10-19T03:10:56.227Z,32.7
2017-10-19T03:11:56.308Z,32.7
2017-10-19T03:12:56.168Z,32.7
2017-10-19T03:13:56.172Z,32.7
2017-10-19T03:14:56.246Z,32.7
2017-10-19T03:15:56.343Z,32.7
2017-10-19T03:16:56.358Z,32.7
2017-10-19T03:17:56.459Z,32.7
2017-10-19T03:18:56.585Z,32.8
2017-10-19T03:19:56.449Z,32.7
2017-10-19T03:20:56.655Z,32.7
2017-10-19T03:21:56.746Z,32.7
2017-10-19T03:22:56.647Z,32.7
2017-10-19T03:23:56.854Z,32.7
2017-10-19T03:24:56.916Z,32.8
2017-10-19T03:25:56.866Z,32.8
2017-10-19T03:26:56.988Z,32.7
2017-10-19T03:27:56.906Z,32.7
2017-10-19T03:28:56.884Z,32.7
2017-10-19T03:29:57.034Z,32.7
2017-10-19T03:30:57.030Z,32.7
2017-10-19T03:31:57.078Z,32.7
2017-10-19T03:32:57.307Z,32.7
2017-10-19T03:33:57.247Z,32.7
2017-10-19T03:34:57.411Z,32.7
2017-10-19T03:35:57.328Z,32.7
2017-10-19T03:36:57.372Z,32.7
2017-10-19T03:37:57.410Z,32.8
2017-10-19T03:38:57.610Z,32.7
2017-10-19T03:39:57.511Z,32.7
2017-10-19T03:40:57.769Z,32.7
2017-10-19T03:41:57.625Z,32.7
2017-10-19T03:42:57.802Z,32.6
2017-10-19T03:43:57.866Z,32.6
2017-10-19T03:44:57.793Z,32.5
2017-10-19T03:45:57.997Z,32.4
2017-10-19T03:46:57.907Z,32.4
2017-10-19T03:47:58.011Z,32.4
2017-10-19T03:48:58.110Z,32.4
2017-10-19T03:49:58.275Z,32.4
2017-10-19T03:50:58.306Z,32.4
2017-10-19T03:51:58.339Z,32.3
2017-10-19T03:52:58.443Z,32.3
2017-10-19T03:53:58.557Z,32.3
2017-10-19T03:54:58.490Z,32.3
2017-10-19T03:55:58.546Z,32.3
2017-10-19T03:56:58.732Z,32.3
2017-10-19T03:57:58.619Z,32.3
2017-10-19T03:58:58.601Z,32.3
2017-10-19T03:59:58.646Z,32.3
2017-10-19T04:00:58.787Z,32.3
2017-10-19T04:01:58.789Z,32.4
2017-10-19T04:02:58.800Z,32.4
2017-10-19T04:03:58.783Z,32.4
2017-10-19T04:04:58.900Z,32.4
2017-10-19T04:05:58.946Z,32.3
2017-10-19T04:06:59.128Z,32.3
2017-10-19T04:07:58.934Z,32.3
2017-10-19T04:08:58.982Z,32.3
2017-10-19T04:09:59.028Z,32.3
2017-10-19T04:10:59.167Z,32.3
2017-10-19T04:11:59.078Z,32.3
2017-10-19T04:12:59.125Z,32.3
2017-10-19T04:13:59.290Z,32.3
2017-10-19T04:14:59.219Z,32.4
2017-10-19T04:15:59.297Z,32.4
2017-10-19T04:16:59.379Z,32.4
2017-10-19T04:17:59.390Z,32.4
2017-10-19T04:18:59.506Z,32.4
2017-10-19T04:19:59.659Z,32.4
2017-10-19T04:20:59.689Z,32.4
2017-10-19T04:21:59.573Z,32.4
2017-10-19T04:22:59.586Z,32.3
2017-10-19T04:23:59.636Z,32.3
2017-10-19T04:24:59.825Z,32.4
2017-10-19T04:25:59.895Z,32.4
2017-10-19T04:26:59.758Z,32.4
2017-10-19T04:27:59.844Z,32.4
2017-10-19T04:29:00.084Z,32.4
2017-10-19T04:30:00.131Z,32.4
2017-10-19T04:31:00.132Z,32.4
2017-10-19T04:32:00.250Z,32.4
2017-10-19T04:33:00.136Z,32.4
2017-10-19T04:34:00.251Z,32.4
2017-10-19T04:35:00.310Z,32.5
2017-10-19T04:36:00.333Z,32.7
2017-10-19T04:37:00.516Z,32.9
2017-10-19T04:38:00.355Z,32.9
2017-10-19T04:39:00.414Z,33
2017-10-19T04:40:00.585Z,33.1
2017-10-19T04:41:00.560Z,33.1
2017-10-19T04:42:00.505Z,33.2
2017-10-19T04:43:00.476Z,33.2
2017-10-19T04:44:00.732Z,33.3
2017-10-19T04:45:00.638Z,33.5
2017-10-19T04:46:00.882Z,33.7
2017-10-19T04:47:00.716Z,34
2017-10-19T04:48:00.864Z,34.1
2017-10-19T04:49:00.856Z,34.2
2017-10-19T04:50:00.773Z,34.3
2017-10-19T04:51:01.013Z,34.5
2017-10-19T04:52:01.108Z,34.7
2017-10-19T04:53:01.008Z,34.9
2017-10-19T04:54:01.011Z,35.1
2017-10-19T04:55:01.094Z,35.3
2017-10-19T04:56:01.102Z,35.4
2017-10-19T04:57:01.093Z,35.6
2017-10-19T04:58:01.212Z,35.7
2017-10-19T04:59:01.284Z,35.7
2017-10-19T05:00:01.357Z,35.9
2017-10-19T05:01:01.437Z,36
2017-10-19T05:02:01.420Z,36.1
2017-10-19T05:03:01.602Z,36.3
2017-10-19T05:04:01.549Z,36.2
2017-10-19T05:05:01.700Z,36.3
2017-10-19T05:06:01.727Z,36.4
2017-10-19T05:07:01.661Z,36.5
2017-10-19T05:08:01.895Z,36.5
2017-10-19T05:09:01.908Z,36.5
2017-10-19T05:10:01.956Z,36.6
2017-10-19T05:11:01.957Z,36.6
2017-10-19T05:12:01.853Z,36.7
2017-10-19T05:13:01.930Z,36.6
2017-10-19T05:14:02.122Z,36.6
2017-10-19T05:15:02.132Z,36.4
2017-10-19T05:16:02.275Z,36.3
2017-10-19T05:17:02.155Z,36.3
2017-10-19T05:18:02.607Z,36.4
2017-10-19T05:19:02.544Z,36.4
2017-10-19T05:20:02.637Z,36.4
2017-10-19T05:21:02.731Z,36.3
2017-10-19T05:22:02.482Z,36.3
2017-10-19T05:23:02.517Z,36.3
2017-10-19T05:24:02.717Z,36.3
2017-10-19T05:25:02.661Z,36.3
2017-10-19T05:26:02.891Z,36.4
2017-10-19T05:27:02.910Z,36.4
2017-10-19T05:28:03.038Z,36.4
2017-10-19T05:29:02.995Z,36.4
2017-10-19T05:30:02.955Z,36.4
2017-10-19T05:31:03.016Z,36.3
2017-10-19T05:32:03.203Z,36.2
2017-10-19T05:33:03.113Z,36.2
2017-10-19T05:34:03.319Z,36.1
2017-10-19T05:35:03.267Z,36
2017-10-19T05:36:03.577Z,35.9
2017-10-19T05:37:03.480Z,35.8
2017-10-19T05:38:03.417Z,35.7
2017-10-19T05:39:03.407Z,35.7
2017-10-19T05:40:03.561Z,35.6
2017-10-19T05:41:03.528Z,35.5
2017-10-19T05:42:03.699Z,35.4
2017-10-19T05:43:03.781Z,35.4
2017-10-19T05:44:03.845Z,35.3
2017-10-19T05:45:03.850Z,35.2
2017-10-19T05:46:03.956Z,35.2
2017-10-19T05:47:03.940Z,35.1
2017-10-19T05:48:04.092Z,35.1
2017-10-19T05:49:04.187Z,35
2017-10-19T05:50:04.112Z,34.9
2017-10-19T05:51:04.117Z,34.9
2017-10-19T05:52:04.375Z,34.8
2017-10-19T05:53:04.187Z,34.8
2017-10-19T05:54:04.313Z,34.7
2017-10-19T05:55:04.383Z,34.7
2017-10-19T05:56:04.489Z,34.6
2017-10-19T05:57:04.514Z,34.5
2017-10-19T05:58:04.577Z,34.5
2017-10-19T05:59:04.542Z,34.4
2017-10-19T06:00:04.712Z,34.4
2017-10-19T06:01:04.588Z,34.3
2017-10-19T06:02:04.658Z,34.3
2017-10-19T06:03:04.728Z,34.3
2017-10-19T06:04:04.864Z,34.2
2017-10-19T06:05:05.040Z,34.2
2017-10-19T06:06:05.130Z,34.1
2017-10-19T06:07:05.003Z,34.1
2017-10-19T06:08:05.025Z,34.1
2017-10-19T06:09:05.083Z,34
2017-10-19T06:10:05.272Z,34
2017-10-19T06:11:05.234Z,34
2017-10-19T06:12:05.727Z,33.9
2017-10-19T06:13:05.340Z,33.9
2017-10-19T06:14:05.416Z,33.9
2017-10-19T06:15:05.496Z,33.9
2017-10-19T06:16:05.671Z,33.9
2017-10-19T06:17:05.536Z,33.8
2017-10-19T06:18:05.768Z,33.8
2017-10-19T06:19:05.654Z,33.8
2017-10-19T06:20:05.809Z,33.7
2017-10-19T06:21:05.835Z,33.7
2017-10-19T06:22:05.861Z,33.7
2017-10-19T06:23:05.823Z,33.7
2017-10-19T06:24:06.032Z,33.6
2017-10-19T06:25:06.055Z,33.6
2017-10-19T06:26:06.113Z,33.5
2017-10-19T06:27:06.115Z,33.5
2017-10-19T06:28:06.412Z,33.4
2017-10-19T06:29:06.453Z,33.4
2017-10-19T06:30:06.325Z,33.4
2017-10-19T06:31:06.308Z,33.4
2017-10-19T06:32:06.381Z,33.3
2017-10-19T06:33:06.567Z,33.3
2017-10-19T06:34:06.740Z,33.3
2017-10-19T06:35:06.561Z,33.3
2017-10-19T06:36:06.635Z,33.3
2017-10-19T06:37:06.699Z,33.3
2017-10-19T06:38:06.610Z,33.3
2017-10-19T06:39:06.832Z,33.2
2017-10-19T06:40:06.815Z,33.2
2017-10-19T06:41:06.782Z,33.2
2017-10-19T06:42:06.894Z,33.1
2017-10-19T06:43:06.943Z,33.1
2017-10-19T06:44:08.182Z,33.1
2017-10-19T06:45:06.976Z,33
2017-10-19T06:46:07.206Z,33
2017-10-19T06:47:06.913Z,32.9
2017-10-19T06:48:07.423Z,32.9
2017-10-19T06:49:07.196Z,32.8
2017-10-19T06:50:07.123Z,32.8
2017-10-19T06:51:07.353Z,32.7
2017-10-19T06:52:07.220Z,32.6
2017-10-19T06:53:07.637Z,32.6
2017-10-19T06:54:07.669Z,32.5
2017-10-19T06:55:07.505Z,32.5
2017-10-19T06:56:07.612Z,32.4
2017-10-19T06:57:07.520Z,32.4
2017-10-19T06:58:07.618Z,32.3
2017-10-19T06:59:07.815Z,32.3
2017-10-19T07:00:08.060Z,32.3
2017-10-19T07:01:07.843Z,32.3
2017-10-19T07:02:07.919Z,32.2
2017-10-19T07:03:07.975Z,32.2
2017-10-19T07:04:08.178Z,32.1
2017-10-19T07:05:08.225Z,32.1
2017-10-19T07:06:08.410Z,32
2017-10-19T07:07:08.369Z,32
2017-10-19T07:08:08.385Z,31.9
2017-10-19T07:09:08.420Z,31.8
2017-10-19T07:10:08.349Z,31.8
2017-10-19T07:11:08.386Z,31.7
2017-10-19T07:12:08.970Z,31.6
2017-10-19T07:13:08.494Z,31.5
2017-10-19T07:14:08.603Z,31.4
2017-10-19T07:15:08.571Z,31.3
2017-10-19T07:16:08.608Z,31.3
2017-10-19T07:17:08.652Z,31.2
2017-10-19T07:18:08.951Z,31
2017-10-19T07:19:08.712Z,31
2017-10-19T07:20:08.837Z,30.9
2017-10-19T07:21:08.891Z,30.8
2017-10-19T07:22:08.898Z,30.7
2017-10-19T07:23:08.842Z,30.6
2017-10-19T07:24:09.215Z,30.5
2017-10-19T07:25:09.072Z,30.5
2017-10-19T07:26:09.125Z,30.4
2017-10-19T07:27:09.240Z,30.3
2017-10-19T07:28:09.489Z,30.3
2017-10-19T07:29:09.448Z,30.2
2017-10-19T07:30:09.683Z,30.2
2017-10-19T07:31:09.485Z,30.1
2017-10-19T07:32:09.250Z,30
2017-10-19T07:33:09.237Z,29.9
2017-10-19T07:34:09.270Z,29.8
2017-10-19T07:35:09.434Z,29.7
2017-10-19T07:36:09.724Z,29.7
2017-10-19T07:37:09.439Z,29.6
2017-10-19T07:38:09.519Z,29.5
2017-10-19T07:39:09.848Z,29.4
2017-10-19T07:40:09.752Z,29.3
2017-10-19T07:41:09.848Z,29.3
2017-10-19T07:42:10.144Z,29.2
2017-10-19T07:43:09.898Z,29.1
2017-10-19T07:44:10.078Z,29.1
2017-10-19T07:45:10.089Z,29
2017-10-19T07:46:09.985Z,29
2017-10-19T07:47:10.585Z,28.9
2017-10-19T07:48:10.209Z,28.8
2017-10-19T07:49:10.337Z,28.8
2017-10-19T07:50:10.264Z,28.7
2017-10-19T07:51:10.277Z,28.7
2017-10-19T07:52:10.414Z,28.6
2017-10-19T07:53:10.763Z,28.6
2017-10-19T07:54:10.602Z,28.5
2017-10-19T07:55:10.588Z,28.5
2017-10-19T07:56:10.644Z,28.5
2017-10-19T07:57:11.716Z,28.4
2017-10-19T07:58:11.369Z,28.4
2017-10-19T07:59:11.066Z,28.4
2017-10-19T08:00:10.866Z,28.4
2017-10-19T08:01:10.783Z,28.5
2017-10-19T08:02:10.888Z,28.5
2017-10-19T08:03:10.945Z,28.5
2017-10-19T08:04:11.101Z,28.5
2017-10-19T08:05:11.368Z,28.4
2017-10-19T08:06:11.043Z,28.3
2017-10-19T08:07:11.000Z,28.3
2017-10-19T08:08:11.268Z,28.4
2017-10-19T08:09:11.916Z,28.3
2017-10-19T08:10:11.234Z,28.2
2017-10-19T08:11:11.725Z,28.1
2017-10-19T08:12:11.494Z,28
2017-10-19T08:13:12.385Z,28
2017-10-19T08:14:11.350Z,28
2017-10-19T08:15:11.394Z,28
2017-10-19T08:16:11.621Z,28
2017-10-19T08:17:11.854Z,28
2017-10-19T08:18:11.777Z,27.9
2017-10-19T08:19:11.889Z,27.9
2017-10-19T08:20:11.832Z,27.8
2017-10-19T08:21:11.935Z,27.9
2017-10-19T08:22:12.007Z,28
2017-10-19T08:23:12.406Z,28.2
2017-10-19T08:24:12.084Z,28.4
2017-10-19T08:25:12.077Z,28.5
2017-10-19T08:26:12.270Z,28.6
2017-10-19T08:27:12.320Z,28.8
2017-10-19T08:28:12.193Z,28.9
2017-10-19T08:29:12.462Z,29
2017-10-19T08:30:12.407Z,29.1
2017-10-19T08:31:12.520Z,29.2
2017-10-19T08:32:12.637Z,29.3
2017-10-19T08:33:12.414Z,29.4
2017-10-19T08:34:12.715Z,29.5
2017-10-19T08:35:12.819Z,29.6
2017-10-19T08:36:12.732Z,29.6
2017-10-19T08:37:12.793Z,29.7
2017-10-19T08:38:12.733Z,29.7
2017-10-19T08:39:12.879Z,29.8
2017-10-19T08:40:13.061Z,29.9
2017-10-19T08:41:14.070Z,30
2017-10-19T08:42:12.886Z,30
2017-10-19T08:43:13.033Z,30
2017-10-19T08:44:13.118Z,30.1
2017-10-19T08:45:13.262Z,30.1
2017-10-19T08:46:13.206Z,30.2
2017-10-19T08:47:13.656Z,30.2
2017-10-19T08:48:14.920Z,30.3
2017-10-19T08:49:13.429Z,30.3
2017-10-19T08:50:13.356Z,30.4
2017-10-19T08:51:13.474Z,30.5
2017-10-19T08:52:13.392Z,30.5
2017-10-19T08:53:13.880Z,30.6
2017-10-19T08:54:13.709Z,30.6
2017-10-19T08:55:13.770Z,30.6
2017-10-19T08:56:13.589Z,30.6
2017-10-19T08:57:13.876Z,30.7
2017-10-19T08:58:13.750Z,30.8
2017-10-19T08:59:14.006Z,30.9
2017-10-19T09:00:13.776Z,31
2017-10-19T09:01:13.945Z,31.1
2017-10-19T09:02:13.841Z,31.2
2017-10-19T09:03:14.212Z,31.3
2017-10-19T09:04:13.851Z,31.5
2017-10-19T09:05:14.172Z,31.6
2017-10-19T09:06:13.968Z,31.5
2017-10-19T09:07:14.003Z,31.5
2017-10-19T09:08:14.167Z,31.6
2017-10-19T09:09:14.232Z,31.7
2017-10-19T09:10:14.730Z,31.8
2017-10-19T09:11:14.730Z,31.8
2017-10-19T09:12:14.271Z,31.8
2017-10-19T09:13:14.525Z,31.9
2017-10-19T09:14:14.385Z,32
2017-10-19T09:15:14.479Z,31.9
2017-10-19T09:16:14.527Z,32
2017-10-19T09:17:14.834Z,32
2017-10-19T09:18:18.878Z,31.9
2017-10-19T09:19:16.332Z,31.8
2017-10-19T09:20:18.215Z,31.7
2017-10-19T09:21:18.326Z,31.6
2017-10-19T09:22:17.831Z,31.6
2017-10-19T09:23:18.484Z,31.5
2017-10-19T09:24:15.097Z,31.5
2017-10-19T09:25:15.310Z,31.4
2017-10-19T09:26:15.283Z,31.5
2017-10-19T09:27:15.200Z,31.5
2017-10-19T09:28:15.121Z,31.4
2017-10-19T09:29:15.737Z,31.4
2017-10-19T09:30:15.281Z,31.3
2017-10-19T09:31:15.396Z,31.3
2017-10-19T09:32:15.459Z,31.3
2017-10-19T09:33:15.496Z,31.4
2017-10-19T09:34:15.331Z,31.4
2017-10-19T09:35:15.926Z,31.5
2017-10-19T09:36:15.445Z,31.5
2017-10-19T09:37:15.730Z,31.6
2017-10-19T09:38:15.707Z,31.5
2017-10-19T09:39:15.697Z,31.6
2017-10-19T09:40:15.710Z,31.6
2017-10-19T09:41:16.106Z,31.6
2017-10-19T09:42:16.093Z,31.6
2017-10-19T09:43:15.982Z,31.5
2017-10-19T09:44:15.901Z,31.4
2017-10-19T09:45:15.835Z,31.3
2017-10-19T09:46:15.791Z,31.4
2017-10-19T09:47:16.080Z,31.4
2017-10-19T09:48:16.044Z,31.5
2017-10-19T09:49:16.050Z,31.5
2017-10-19T09:50:16.258Z,31.7
2017-10-19T09:51:16.147Z,31.8
2017-10-19T09:52:16.220Z,31.8
2017-10-19T09:53:16.483Z,31.9
2017-10-19T09:54:16.177Z,31.9
2017-10-19T09:55:16.198Z,32
2017-10-19T09:56:16.520Z,32
2017-10-19T09:57:16.540Z,32
2017-10-19T09:58:16.471Z,32
2017-10-19T09:59:16.825Z,32
2017-10-19T10:00:16.516Z,32
2017-10-19T10:01:16.669Z,32
2017-10-19T10:02:16.705Z,31.9
2017-10-19T10:03:16.488Z,31.9
2017-10-19T10:04:16.650Z,31.9
2017-10-19T10:05:16.947Z,31.9
2017-10-19T10:06:16.818Z,31.9
2017-10-19T10:07:16.691Z,31.9
2017-10-19T10:08:16.912Z,32
2017-10-19T10:09:16.852Z,31.9
2017-10-19T10:10:17.090Z,31.9
2017-10-19T10:11:17.415Z,31.9
2017-10-19T10:12:17.187Z,31.9
2017-10-19T10:13:17.056Z,31.8
2017-10-19T10:14:17.417Z,31.7
2017-10-19T10:15:17.310Z,31.6
2017-10-19T10:16:17.264Z,31.6
2017-10-19T10:17:17.664Z,31.6
2017-10-19T10:18:17.609Z,31.5
2017-10-19T10:19:17.362Z,31.4
2017-10-19T10:20:17.515Z,31.5
2017-10-19T10:21:17.744Z,31.4
2017-10-19T10:22:17.899Z,31.3
2017-10-19T10:23:18.052Z,31.2
2017-10-19T10:24:17.867Z,31.1
2017-10-19T10:25:17.705Z,31
2017-10-19T10:26:17.782Z,31
2017-10-19T10:27:17.982Z,31
2017-10-19T10:28:17.830Z,31.1
2017-10-19T10:29:18.060Z,31.2
2017-10-19T10:30:18.200Z,31.2
2017-10-19T10:31:17.901Z,31.2
2017-10-19T10:32:18.048Z,31.2
2017-10-19T10:33:18.112Z,31.3
2017-10-19T10:34:21.218Z,31.2
2017-10-19T10:35:20.800Z,31.2
2017-10-19T10:36:20.776Z,31.2
2017-10-19T10:37:20.399Z,31.2
2017-10-19T10:38:18.368Z,31.3
2017-10-19T10:39:18.544Z,31.3
2017-10-19T10:40:18.531Z,31.3
2017-10-19T10:41:18.763Z,31.3
2017-10-19T10:42:19.045Z,31.3
2017-10-19T10:43:20.940Z,31.3
2017-10-19T10:44:21.573Z,31.2
2017-10-19T10:45:21.027Z,31.2
2017-10-19T10:46:21.321Z,31.3
2017-10-19T10:47:22.141Z,31.3
2017-10-19T10:48:21.904Z,31.2
2017-10-19T10:49:19.227Z,31.2
2017-10-19T10:50:19.108Z,31.2
2017-10-19T10:51:22.549Z,31.1
2017-10-19T10:52:22.504Z,31.1
2017-10-19T10:53:23.676Z,31.1
2017-10-19T10:54:23.641Z,31.1
2017-10-19T10:55:22.596Z,31.1
2017-10-19T10:56:22.201Z,31.1
2017-10-19T10:57:22.445Z,31.1
2017-10-19T10:58:21.642Z,31
2017-10-19T10:59:22.762Z,31.1
2017-10-19T11:00:22.342Z,31.1
2017-10-19T11:01:22.677Z,31
2017-10-19T11:02:21.969Z,31
2017-10-19T11:03:22.715Z,31
2017-10-19T11:04:23.333Z,31
2017-10-19T11:05:23.715Z,30.9
2017-10-19T11:06:22.516Z,30.8
2017-10-19T11:07:23.069Z,30.7
2017-10-19T11:08:23.021Z,30.6
2017-10-19T11:09:23.022Z,30.6
2017-10-19T11:10:23.423Z,30.6
2017-10-19T11:11:22.628Z,30.6
2017-10-19T11:12:22.964Z,30.5
2017-10-19T11:13:23.267Z,30.5
2017-10-19T11:14:23.983Z,30.4
2017-10-19T11:15:23.242Z,30.4
2017-10-19T11:16:23.807Z,30.4
2017-10-19T11:17:23.807Z,30.3
2017-10-19T11:18:24.680Z,30.3
2017-10-19T11:19:22.801Z,30.3
2017-10-19T11:20:24.139Z,30.3
2017-10-19T11:21:20.723Z,30.3
2017-10-19T11:22:20.995Z,30.2
2017-10-19T11:23:20.973Z,30.2
2017-10-19T11:24:21.191Z,30.1
2017-10-19T11:25:21.704Z,30.1
2017-10-19T11:26:21.527Z,30
2017-10-19T11:27:21.277Z,30
2017-10-19T11:28:20.928Z,30
2017-10-19T11:29:21.137Z,30
2017-10-19T11:30:21.174Z,30
2017-10-19T11:31:21.458Z,30.1
2017-10-19T11:32:21.137Z,30
2017-10-19T11:33:21.213Z,30
2017-10-19T11:34:21.296Z,30
2017-10-19T11:35:21.372Z,29.9
2017-10-19T11:36:21.619Z,29.9
2017-10-19T11:37:21.503Z,29.9
2017-10-19T11:38:21.634Z,29.9
2017-10-19T11:39:21.635Z,29.9
2017-10-19T11:40:21.579Z,29.9
2017-10-19T11:41:21.733Z,29.9
2017-10-19T11:42:21.781Z,29.9
2017-10-19T11:43:21.772Z,29.8
2017-10-19T11:44:21.892Z,29.8
2017-10-19T11:45:21.762Z,29.9
2017-10-19T11:46:21.924Z,29.9
2017-10-19T11:47:22.064Z,29.9
2017-10-19T11:48:22.092Z,29.8
2017-10-19T11:49:22.076Z,29.9
2017-10-19T11:50:22.140Z,29.9
2017-10-19T11:51:22.279Z,29.9
2017-10-19T11:52:22.268Z,30.1
2017-10-19T11:53:22.360Z,30.2
2017-10-19T11:54:22.388Z,30.2
2017-10-19T11:55:22.293Z,30.3
2017-10-19T11:56:22.470Z,30.5
2017-10-19T11:57:22.491Z,30.5
2017-10-19T11:58:22.419Z,30.4
2017-10-19T11:59:22.529Z,30.4
2017-10-19T12:00:22.515Z,30.4
2017-10-19T12:01:22.593Z,30.3
2017-10-19T12:02:22.642Z,30.3
2017-10-19T12:03:22.658Z,30.3
2017-10-19T12:04:22.808Z,30.4
2017-10-19T12:05:23.024Z,30.4
2017-10-19T12:06:22.927Z,30.5
2017-10-19T12:07:23.140Z,30.4
2017-10-19T12:08:22.895Z,30.3
2017-10-19T12:09:23.230Z,30.2
2017-10-19T12:10:23.288Z,30.2
2017-10-19T12:11:23.121Z,30.3
2017-10-19T12:12:23.183Z,30.2
2017-10-19T12:13:23.328Z,30.2
2017-10-19T12:14:23.564Z,30.1
2017-10-19T12:15:23.431Z,30
2017-10-19T12:16:24.123Z,29.9
2017-10-19T12:17:24.010Z,29.9
2017-10-19T12:18:23.530Z,29.9
2017-10-19T12:19:23.598Z,29.8
2017-10-19T12:20:24.277Z,29.8
2017-10-19T12:21:23.818Z,29.7
2017-10-19T12:22:23.791Z,29.6
2017-10-19T12:23:23.809Z,29.6
2017-10-19T12:24:23.754Z,29.6
2017-10-19T12:25:23.913Z,29.5
2017-10-19T12:26:24.040Z,29.5
2017-10-19T12:27:24.115Z,29.5
2017-10-19T12:30:41.308Z,29.7
2017-10-19T12:31:41.039Z,29.8
2017-10-19T12:32:41.117Z,29.7
2017-10-19T12:39:32.078Z,29.5
2017-10-19T12:40:30.740Z,29.5
2017-10-19T12:41:30.927Z,29.5
2017-10-19T12:42:31.104Z,29.5
2017-10-19T12:43:30.832Z,29.5
2017-10-19T12:44:30.819Z,29.5
2017-10-19T12:45:30.942Z,29.5
2017-10-19T12:46:30.574Z,29.5
2017-10-19T12:47:30.729Z,29.5
2017-10-19T12:48:30.744Z,29.5
2017-10-19T12:49:30.858Z,29.6
2017-10-19T12:50:30.846Z,29.5
2017-10-19T12:51:31.054Z,29.6
2017-10-19T12:52:30.992Z,29.6
2017-10-19T12:53:31.065Z,29.6
2017-10-19T12:54:31.143Z,29.6
2017-10-19T12:55:31.619Z,29.6
2017-10-19T12:56:31.147Z,29.6
2017-10-19T12:57:31.191Z,29.6
2017-10-19T12:58:31.454Z,29.6
2017-10-19T12:59:31.315Z,29.5
2017-10-19T13:00:31.717Z,29.5
2017-10-19T13:01:31.487Z,29.4
2017-10-19T13:02:31.489Z,29.4
2017-10-19T13:03:31.595Z,29.4
2017-10-19T13:04:31.535Z,29.3
2017-10-19T13:05:31.688Z,29.1
2017-10-19T13:06:31.836Z,29.1
2017-10-19T13:07:31.840Z,29.1
2017-10-19T13:08:31.710Z,29
2017-10-19T13:09:32.020Z,29
2017-10-19T13:10:31.933Z,29
2017-10-19T13:11:31.820Z,29.1
2017-10-19T13:12:32.068Z,29
2017-10-19T13:13:31.959Z,29
2017-10-19T13:14:32.154Z,28.9
2017-10-19T13:15:32.223Z,28.9
2017-10-19T13:16:32.283Z,28.9
2017-10-19T13:17:32.209Z,29
2017-10-19T13:18:32.324Z,29
2017-10-19T13:19:32.420Z,29
2017-10-19T13:20:32.703Z,29.1
2017-10-19T13:21:32.364Z,29.2
2017-10-19T13:22:32.453Z,29.2
2017-10-19T13:23:32.647Z,29.1
2017-10-19T13:24:32.698Z,29.1
2017-10-19T13:25:32.634Z,29.2
2017-10-19T13:26:32.609Z,29.2
2017-10-19T13:27:32.739Z,29.3
2017-10-19T13:28:32.871Z,29.3
2017-10-19T13:29:32.950Z,29.3
2017-10-19T13:30:32.825Z,29.3
2017-10-19T13:31:33.308Z,29.4